Time;durP1;ratioP1;P1;durP2;ratioP2;P2;SDS_P1;SDS_P2;PMS_P1;PMS_P2;Temp;Humidity;BMP_temperature;BMP_pressure;BME280_temperature;BME280_humidity;BME280_pressure;Samples;Min_cycle;Max_cycle;Signal;HPM_P1;HPM_P2
2022/03/28 00:01:50;;;;;;;3.42;0.70;;;;;;;12.44;20.88;99820.88;4976613;28;20532;-55
2022/03/28 00:04:34;;;;;;;1.85;0.95;;;;;;;12.40;20.87;99821.16;4976866;28;20504;-50
2022/03/28 00:07:19;;;;;;;1.77;0.98;;;;;;;12.34;21.24;99826.78;4991529;28;20112;-51
2022/03/28 00:10:05;;;;;;;2.30;0.80;;;;;;;12.29;21.19;99821.81;4991217;28;20053;-52
2022/03/28 00:12:50;;;;;;;2.10;0.80;;;;;;;12.29;21.07;99821.81;4991523;28;20050;-51
2022/03/28 00:15:35;;;;;;;2.63;1.00;;;;;;;12.28;21.12;99817.47;4976815;28;20122;-50
2022/03/28 00:18:20;;;;;;;2.00;0.90;;;;;;;12.27;21.24;99813.97;4991384;28;20057;-52
2022/03/28 00:21:05;;;;;;;2.60;1.10;;;;;;;12.30;21.30;99819.09;4991131;28;20566;-55
2022/03/28 00:23:49;;;;;;;2.15;0.95;;;;;;;12.27;21.09;99821.03;4991022;28;20453;-53
2022/03/28 00:26:35;;;;;;;2.20;0.90;;;;;;;12.29;21.15;99808.66;4991279;28;20112;-55
2022/03/28 00:29:20;;;;;;;3.50;0.90;;;;;;;12.30;21.11;99803.31;4991687;28;20066;-55
2022/03/28 00:32:05;;;;;;;2.10;0.80;;;;;;;12.27;21.25;99805.28;4976724;28;20042;-55
2022/03/28 00:34:50;;;;;;;2.38;1.13;;;;;;;12.22;21.29;99795.03;4994892;28;20100;-56
2022/03/28 00:37:37;;;;;;;2.15;0.80;;;;;;;12.12;21.35;99788.63;4994870;28;20120;-54
2022/03/28 00:40:23;;;;;;;1.92;0.57;;;;;;;12.15;21.05;99796.31;4979782;28;20065;-52
2022/03/28 00:43:09;;;;;;;1.98;1.00;;;;;;;12.04;21.26;99794.31;4994580;28;20050;-54
2022/03/28 00:45:54;;;;;;;2.20;0.82;;;;;;;12.04;21.11;99792.53;4979912;28;20049;-51
2022/03/28 00:48:42;;;;;;;1.23;0.85;;;;;;;12.10;21.29;99793.97;4980114;28;20129;-50
2022/03/28 00:51:27;;;;;;;1.80;0.82;;;;;;;11.98;21.11;99787.63;4994585;28;20401;-53
2022/03/28 00:54:11;;;;;;;2.15;0.90;;;;;;;12.13;21.31;99783.28;4994021;28;20406;-48
2022/03/28 00:56:56;;;;;;;2.53;1.00;;;;;;;11.89;21.82;99788.16;4993987;28;20097;-55
2022/03/28 00:59:41;;;;;;;1.65;0.80;;;;;;;11.76;22.00;99786.25;4979508;28;20050;-54
2022/03/28 01:02:26;;;;;;;2.20;1.10;;;;;;;11.83;21.86;99784.13;4994516;28;20673;-55
2022/03/28 01:05:11;;;;;;;3.28;1.10;;;;;;;11.83;21.92;99777.06;4994272;28;20057;-54
2022/03/28 01:07:56;;;;;;;2.35;1.08;;;;;;;11.90;21.64;99774.09;4994192;28;20042;-56
2022/03/28 01:10:42;;;;;;;2.15;0.82;;;;;;;11.86;21.59;99773.44;4994297;28;20039;-55
2022/03/28 01:13:28;;;;;;;2.22;0.93;;;;;;;11.53;21.70;99775.28;4994374;28;20046;-54
2022/03/28 01:16:13;;;;;;;2.80;1.30;;;;;;;11.61;21.93;99772.22;4979336;28;20540;-52
2022/03/28 01:19:01;;;;;;;1.80;0.95;;;;;;;11.73;21.71;99760.19;4994070;28;20046;-54
2022/03/28 01:21:45;;;;;;;2.08;0.90;;;;;;;11.80;21.67;99758.88;4994330;28;20046;-53
2022/03/28 01:24:31;;;;;;;4.65;1.10;;;;;;;11.85;21.74;99757.78;4993729;28;20068;-56
2022/03/28 01:27:15;;;;;;;3.55;1.15;;;;;;;11.90;21.68;99766.22;4992478;28;20042;-53
2022/03/28 01:30:00;;;;;;;1.67;0.65;;;;;;;11.82;21.84;99751.75;4978993;28;20057;-54
2022/03/28 01:32:46;;;;;;;2.78;1.00;;;;;;;11.64;21.93;99756.28;4979215;28;20042;-53
2022/03/28 01:35:36;;;;;;;2.72;1.02;;;;;;;11.59;22.11;99758.31;4994008;28;20051;-54
2022/03/28 01:38:21;;;;;;;3.00;1.05;;;;;;;11.51;22.14;99753.53;4993649;28;20050;-54
2022/03/28 01:41:06;;;;;;;2.15;0.73;;;;;;;11.34;22.42;99755.31;4993632;28;20050;-53
2022/03/28 01:43:51;;;;;;;1.83;0.70;;;;;;;11.31;22.59;99752.03;4993295;28;20192;-53
2022/03/28 01:46:44;;;;;;;5.35;1.00;;;;;;;11.33;22.82;99752.78;4978896;28;20097;-50
2022/03/28 01:49:29;;;;;;;1.55;0.90;;;;;;;11.26;22.59;99752.25;4993427;28;20066;-51
2022/03/28 01:52:13;;;;;;;4.57;0.85;;;;;;;11.27;22.55;99745.25;4993205;28;20050;-53
2022/03/28 01:54:58;;;;;;;3.28;1.25;;;;;;;11.28;22.36;99753.03;4993491;28;20042;-54
2022/03/28 01:57:44;;;;;;;3.72;0.90;;;;;;;11.25;22.37;99745.34;4993091;28;20073;-50
2022/03/28 02:00:29;;;;;;;5.00;1.27;;;;;;;11.29;22.44;99738.16;4978655;28;20062;-56
2022/03/28 02:03:13;;;;;;;3.38;0.85;;;;;;;11.30;22.32;99734.59;4978620;28;20080;-52
2022/03/28 02:05:58;;;;;;;3.05;0.93;;;;;;;11.33;22.38;99731.78;4993152;28;20100;-55
2022/03/28 02:08:43;;;;;;;2.88;0.82;;;;;;;11.38;22.40;99731.53;4978755;28;20397;-54
2022/03/28 02:11:29;;;;;;;1.50;0.75;;;;;;;11.46;22.08;99721.44;4978737;28;20486;-54
2022/03/28 02:14:14;;;;;;;2.03;0.90;;;;;;;11.51;21.83;99724.66;4993053;28;20058;-50
2022/03/28 02:16:59;;;;;;;3.20;0.95;;;;;;;11.54;21.72;99721.00;4993171;28;20054;-54
2022/03/28 02:19:43;;;;;;;1.70;0.85;;;;;;;11.57;21.78;99712.97;4993000;28;20042;-55
2022/03/28 02:22:28;;;;;;;3.60;0.95;;;;;;;11.54;21.79;99721.00;4978435;28;20046;-54
2022/03/28 02:25:15;;;;;;;2.45;1.20;;;;;;;11.47;22.08;99717.91;4976956;28;20043;-53
2022/03/28 02:27:59;;;;;;;3.85;0.93;;;;;;;11.36;22.07;99717.66;4992523;28;20113;-55
2022/03/28 02:30:44;;;;;;;2.40;1.00;;;;;;;11.39;22.32;99715.69;4977769;28;20104;-54
2022/03/28 02:33:28;;;;;;;1.70;0.80;;;;;;;11.37;22.68;99716.72;4992511;28;20047;-55
2022/03/28 02:36:13;;;;;;;2.22;1.00;;;;;;;11.33;22.60;99714.28;4992381;28;20105;-52
2022/03/28 02:38:58;;;;;;;3.15;1.05;;;;;;;11.25;22.32;99710.38;4977873;28;20050;-50
2022/03/28 02:41:43;;;;;;;1.55;0.98;;;;;;;11.26;22.14;99712.91;4978048;28;20430;-53
2022/03/28 02:44:28;;;;;;;1.88;0.88;;;;;;;11.25;22.65;99713.00;4992407;28;20494;-50
2022/03/28 02:47:13;;;;;;;3.00;0.77;;;;;;;11.32;22.14;99711.75;4977614;28;20137;-54
2022/03/28 02:49:58;;;;;;;1.63;0.70;;;;;;;11.27;22.06;99711.16;4992584;28;20058;-54
2022/03/28 02:52:42;;;;;;;3.08;1.00;;;;;;;11.23;22.20;99701.78;4963979;28;20050;-53
2022/03/28 02:55:27;;;;;;;3.00;0.90;;;;;;;11.15;22.42;99700.41;4963223;28;20490;-52
2022/03/28 02:58:12;;;;;;;3.70;1.05;;;;;;;11.19;22.54;99698.47;4991864;28;20053;-54
2022/03/28 03:00:57;;;;;;;3.53;1.15;;;;;;;11.20;22.61;99692.28;4991868;28;20511;-54
2022/03/28 03:03:42;;;;;;;3.92;1.63;;;;;;;11.04;22.33;99697.56;4992159;28;20117;-53
2022/03/28 03:06:27;;;;;;;3.05;1.35;;;;;;;11.07;22.24;99694.75;4992204;28;20046;-54
2022/03/28 03:09:11;;;;;;;2.75;1.20;;;;;;;10.99;22.12;99694.34;4992308;28;20085;-55
2022/03/28 03:11:56;;;;;;;2.70;1.10;;;;;;;11.03;22.19;99704.56;4992093;28;20501;-56
2022/03/28 03:14:41;;;;;;;2.85;0.85;;;;;;;10.98;22.44;99701.38;4977603;28;20100;-52
2022/03/28 03:17:26;;;;;;;2.25;1.10;;;;;;;10.95;22.54;99697.13;4977299;28;20069;-56
2022/03/28 03:20:11;;;;;;;3.28;0.93;;;;;;;10.87;22.36;99693.25;4991592;28;20042;-54
2022/03/28 03:22:56;;;;;;;2.47;0.77;;;;;;;10.84;22.26;99694.25;4992178;28;20049;-49
2022/03/28 03:25:40;;;;;;;2.95;1.27;;;;;;;10.65;23.05;99692.66;4992214;28;20058;-57
2022/03/28 03:28:25;;;;;;;3.15;1.10;;;;;;;10.67;23.27;99690.81;4977076;28;20482;-51
2022/03/28 03:31:10;;;;;;;1.67;0.90;;;;;;;10.60;23.12;99697.28;4977105;28;20081;-55
2022/03/28 03:33:55;;;;;;;1.58;0.85;;;;;;;10.58;22.90;99686.03;4991371;28;20042;-52
2022/03/28 03:36:40;;;;;;;2.20;1.08;;;;;;;10.64;22.61;99679.63;4991793;28;20046;-52
2022/03/28 03:39:25;;;;;;;1.73;1.00;;;;;;;10.80;22.71;99682.25;4991693;28;20042;-52
2022/03/28 03:42:11;;;;;;;2.35;0.73;;;;;;;10.72;22.58;99675.66;4991373;28;20422;-53
2022/03/28 03:44:56;;;;;;;1.95;0.93;;;;;;;10.76;22.52;99683.34;4990836;28;20047;-55
2022/03/28 03:47:40;;;;;;;2.60;1.02;;;;;;;10.73;22.29;99673.88;4976917;28;20078;-53
2022/03/28 03:50:25;;;;;;;2.47;1.15;;;;;;;10.69;22.37;99673.19;4991593;28;20046;-52
2022/03/28 03:53:10;;;;;;;1.80;1.02;;;;;;;10.65;22.56;99676.94;4976938;28;20042;-54
2022/03/28 03:55:55;;;;;;;2.47;0.90;;;;;;;10.61;22.43;99685.03;4991635;28;20085;-52
2022/03/28 03:58:40;;;;;;;2.97;0.82;;;;;;;10.53;22.47;99682.81;4991657;28;20093;-56
2022/03/28 04:01:26;;;;;;;2.05;1.15;;;;;;;10.49;22.82;99679.53;4991335;28;20085;-55
2022/03/28 04:04:12;;;;;;;2.13;1.02;;;;;;;10.50;22.68;99683.84;4990872;28;20061;-55
2022/03/28 04:06:57;;;;;;;2.35;0.93;;;;;;;10.50;22.79;99677.75;4977012;28;20409;-54
2022/03/28 04:09:42;;;;;;;1.60;0.63;;;;;;;10.51;22.41;99679.44;4980595;28;20112;-55
2022/03/28 04:12:27;;;;;;;2.22;0.75;;;;;;;10.46;22.33;99680.53;4995366;28;20125;-56
2022/03/28 04:15:12;;;;;;;2.60;1.10;;;;;;;10.46;22.43;99690.16;4995368;28;20124;-52
2022/03/28 04:17:57;;;;;;;3.47;1.10;;;;;;;10.61;22.97;99675.38;4980280;28;20054;-55
2022/03/28 04:20:42;;;;;;;3.58;1.35;;;;;;;10.60;23.60;99686.81;4994897;28;20050;-55
2022/03/28 04:23:26;;;;;;;1.70;0.90;;;;;;;10.40;23.26;99672.13;4994851;28;20100;-53
2022/03/28 04:26:11;;;;;;;3.25;1.33;;;;;;;10.45;22.58;99676.19;4994843;28;20050;-53
2022/03/28 04:28:56;;;;;;;2.30;0.85;;;;;;;10.35;22.51;99674.97;4980343;28;20442;-53
2022/03/28 04:31:40;;;;;;;2.15;1.25;;;;;;;10.24;22.38;99672.94;4994668;28;20084;-54
2022/03/28 04:34:25;;;;;;;2.78;1.13;;;;;;;10.35;22.72;99674.97;4979998;28;20390;-52
2022/03/28 04:37:10;;;;;;;1.88;1.05;;;;;;;10.29;22.97;99675.31;4966820;28;20727;-54
2022/03/28 04:39:55;;;;;;;2.67;0.80;;;;;;;10.43;22.57;99677.22;4966573;28;20042;-53
2022/03/28 04:42:40;;;;;;;1.83;0.80;;;;;;;10.39;22.73;99684.38;4994994;28;20061;-50
2022/03/28 04:45:25;;;;;;;2.45;0.90;;;;;;;10.26;22.94;99678.09;4994897;28;20051;-54
2022/03/28 04:48:10;;;;;;;2.47;0.88;;;;;;;10.26;23.70;99667.63;4980175;28;20046;-53
2022/03/28 04:50:54;;;;;;;3.28;0.98;;;;;;;10.22;23.23;99670.41;4994187;28;20061;-55
2022/03/28 04:53:39;;;;;;;2.22;0.95;;;;;;;10.29;23.36;99673.56;4979975;28;20046;-51
2022/03/28 04:56:23;;;;;;;2.47;1.00;;;;;;;10.30;22.57;99667.38;4994232;28;20413;-53
2022/03/28 04:59:08;;;;;;;2.65;0.80;;;;;;;10.31;23.02;99669.09;4979760;28;20074;-51
2022/03/28 05:01:53;;;;;;;3.20;1.17;;;;;;;10.19;23.34;99662.72;4993602;28;20160;-51
2022/03/28 05:04:38;;;;;;;4.10;1.00;;;;;;;10.29;22.91;99657.84;4979625;28;20047;-51
2022/03/28 05:07:25;;;;;;;3.47;0.98;;;;;;;10.26;22.73;99651.91;4994057;28;20046;-52
2022/03/28 05:10:10;;;;;;;3.60;0.82;;;;;;;10.02;22.71;99654.91;4994129;28;20452;-56
2022/03/28 05:12:55;;;;;;;2.10;0.88;;;;;;;10.02;22.90;99652.28;4965863;28;20046;-54
2022/03/28 05:15:39;;;;;;;4.25;1.10;;;;;;;9.81;22.64;99652.47;4994179;28;20050;-56
2022/03/28 05:18:24;;;;;;;1.27;0.90;;;;;;;9.54;22.84;99647.69;4993390;28;20052;-54
2022/03/28 05:21:09;;;;;;;2.28;1.20;;;;;;;9.61;23.29;99654.34;4994020;28;20046;-55
2022/03/28 05:23:54;;;;;;;4.22;1.55;;;;;;;9.69;23.05;99651.31;4993809;28;20034;-53
2022/03/28 05:26:39;;;;;;;2.60;1.00;;;;;;;9.84;23.09;99661.00;4994000;28;20146;-54
2022/03/28 05:29:24;;;;;;;4.03;1.27;;;;;;;9.80;23.09;99662.09;4978926;28;20405;-53
2022/03/28 05:32:10;;;;;;;2.05;1.00;;;;;;;10.05;23.39;99662.59;4993775;28;20409;-56
2022/03/28 05:34:54;;;;;;;3.88;1.73;;;;;;;10.09;23.07;99651.88;4978780;28;20105;-52
2022/03/28 05:37:41;;;;;;;3.78;1.00;;;;;;;9.93;23.23;99662.31;4965636;28;20042;-51
2022/03/28 05:40:25;;;;;;;3.97;1.40;;;;;;;9.88;23.21;99666.94;4993283;28;20129;-54
2022/03/28 05:43:10;;;;;;;2.10;1.40;;;;;;;10.12;24.12;99669.19;4979012;28;20055;-55
2022/03/28 05:45:55;;;;;;;5.95;2.70;;;;;;;10.47;25.33;99670.91;4993422;28;20053;-53
2022/03/28 05:48:39;;;;;;;5.70;1.63;;;;;;;10.79;24.63;99667.44;4979013;28;20050;-55
2022/03/28 05:51:24;;;;;;;3.20;1.60;;;;;;;11.12;24.18;99663.88;4978847;28;20061;-53
2022/03/28 05:54:09;;;;;;;10.90;3.33;;;;;;;11.43;24.11;99663.91;4993695;28;20129;-55
2022/03/28 05:56:54;;;;;;;4.70;2.00;;;;;;;11.33;24.03;99669.69;4978772;28;20145;-53
2022/03/28 05:59:39;;;;;;;6.22;3.00;;;;;;;11.40;24.43;99672.81;4978422;28;20043;-54
2022/03/28 06:02:24;;;;;;;5.82;2.35;;;;;;;11.52;24.16;99675.66;4993496;28;20074;-55
2022/03/28 06:05:10;;;;;;;7.20;2.70;;;;;;;11.25;24.80;99682.38;4993170;28;20069;-51
2022/03/28 06:07:55;;;;;;;4.50;2.10;;;;;;;11.64;23.76;99679.31;4993404;28;20634;-56
2022/03/28 06:10:40;;;;;;;5.90;2.40;;;;;;;11.81;23.87;99687.06;4978600;28;20058;-55
2022/03/28 06:13:25;;;;;;;7.10;2.45;;;;;;;11.99;23.72;99678.19;4992937;28;20051;-51
2022/03/28 06:16:10;;;;;;;5.90;2.38;;;;;;;11.94;23.83;99673.22;4978190;28;20042;-54
2022/03/28 06:18:54;;;;;;;4.47;2.10;;;;;;;12.22;23.78;99673.34;4993187;28;20076;-52
2022/03/28 06:21:40;;;;;;;5.13;2.40;;;;;;;12.69;23.55;99668.72;4992990;28;20397;-55
2022/03/28 06:24:25;;;;;;;4.65;2.53;;;;;;;12.92;23.66;99669.03;4993044;28;20050;-55
2022/03/28 06:27:09;;;;;;;3.90;2.25;;;;;;;13.35;22.61;99665.38;4978683;28;20046;-55
2022/03/28 06:29:54;;;;;;;9.55;2.97;;;;;;;13.26;23.43;99676.50;4992807;28;20074;-55
2022/03/28 06:32:40;;;;;;;6.13;1.92;;;;;;;13.59;22.67;99670.00;4992932;28;20054;-56
2022/03/28 06:35:25;;;;;;;5.35;2.30;;;;;;;13.17;23.46;99676.16;4992566;28;20066;-55
2022/03/28 06:38:09;;;;;;;6.30;2.30;;;;;;;13.66;23.14;99668.63;4992303;28;20053;-55
2022/03/28 06:40:54;;;;;;;6.35;2.47;;;;;;;13.78;23.57;99669.59;4977927;28;20544;-50
2022/03/28 06:43:39;;;;;;;4.70;1.88;;;;;;;13.96;23.77;99671.94;4992252;28;20422;-55
2022/03/28 06:46:23;;;;;;;6.47;2.58;;;;;;;13.88;24.86;99667.19;4992182;28;20081;-54
2022/03/28 06:49:08;;;;;;;4.38;2.25;;;;;;;13.74;24.00;99669.91;4992298;28;20468;-53
2022/03/28 06:51:53;;;;;;;5.07;1.80;;;;;;;14.44;23.54;99673.06;4992561;28;20497;-55
2022/03/28 06:54:38;;;;;;;3.88;2.20;;;;;;;14.82;22.58;99668.66;4992399;28;20049;-54
2022/03/28 06:57:22;;;;;;;5.68;2.58;;;;;;;14.71;23.21;99669.41;4977767;28;20053;-55
2022/03/28 07:00:10;;;;;;;5.65;2.20;;;;;;;15.61;21.73;99666.47;4977634;28;20042;-54
2022/03/28 07:02:54;;;;;;;4.82;2.17;;;;;;;15.49;22.63;99665.59;4991825;28;20054;-53
2022/03/28 07:05:39;;;;;;;5.78;2.65;;;;;;;15.70;22.36;99657.84;4992194;28;20046;-53
2022/03/28 07:08:24;;;;;;;3.83;2.20;;;;;;;15.00;22.03;99671.75;4977260;28;20509;-54
2022/03/28 07:11:09;;;;;;;5.93;2.35;;;;;;;14.84;22.28;99668.53;4992278;28;20074;-55
2022/03/28 07:13:54;;;;;;;5.55;2.30;;;;;;;15.60;21.53;99662.97;4992237;28;20392;-56
2022/03/28 07:16:39;;;;;;;5.65;2.30;;;;;;;15.76;21.50;99665.34;4992402;28;20053;-53
2022/03/28 07:19:23;;;;;;;6.03;2.80;;;;;;;16.17;21.23;99659.66;4977310;28;20053;-53
2022/03/28 07:22:08;;;;;;;8.52;3.92;;;;;;;14.88;21.77;99665.56;4991907;28;20098;-53
2022/03/28 07:24:53;;;;;;;9.82;3.67;;;;;;;14.68;22.49;99672.25;4963848;28;20051;-57
2022/03/28 07:27:40;;;;;;;8.32;3.47;;;;;;;16.21;21.70;99663.72;4992083;28;20050;-55
2022/03/28 07:30:25;;;;;;;6.35;3.20;;;;;;;16.63;20.81;99659.59;4991543;28;20421;-56
2022/03/28 07:33:10;;;;;;;6.63;3.50;;;;;;;15.93;21.41;99655.25;4976924;28;20382;-53
2022/03/28 07:35:55;;;;;;;7.88;3.75;;;;;;;16.16;21.76;99649.19;4991616;28;20104;-53
2022/03/28 07:38:40;;;;;;;5.35;2.95;;;;;;;15.87;21.53;99648.66;4991767;28;20078;-54
2022/03/28 07:41:25;;;;;;;5.78;2.97;;;;;;;16.59;21.18;99651.06;4989922;28;20042;-54
2022/03/28 07:44:10;;;;;;;6.57;3.60;;;;;;;16.83;21.49;99657.13;4991588;28;20046;-54
2022/03/28 07:46:58;;;;;;;5.25;3.03;;;;;;;17.32;20.51;99656.75;4991057;28;20046;-54
2022/03/28 07:49:43;;;;;;;7.20;3.42;;;;;;;17.20;20.08;99648.88;4991532;28;20080;-54
2022/03/28 07:52:28;;;;;;;7.20;3.58;;;;;;;16.43;20.63;99643.53;4991562;28;20050;-56
2022/03/28 07:55:13;;;;;;;5.82;3.08;;;;;;;17.10;20.52;99637.38;4991520;28;20061;-54
2022/03/28 07:58:02;;;;;;;6.68;3.83;;;;;;;17.63;20.36;99635.66;4976470;28;20053;-52
2022/03/28 08:00:47;;;;;;;6.38;3.38;;;;;;;19.13;19.73;99635.22;4991126;28;20042;-55
2022/03/28 08:03:32;;;;;;;10.90;3.70;;;;;;;18.74;19.21;99633.31;4991132;28;20144;-57
2022/03/28 08:06:17;;;;;;;6.63;4.05;;;;;;;18.79;19.18;99631.94;4943533;28;20137;-56
2022/03/28 08:09:02;;;;;;;6.95;3.42;;;;;;;19.29;19.25;99630.16;4971795;28;20047;-56
2022/03/28 08:11:47;;;;;;;5.95;3.60;;;;;;;20.31;18.56;99634.94;4971810;28;20047;-56
2022/03/28 08:14:32;;;;;;;7.68;3.40;;;;;;;20.31;18.46;99626.97;4971709;28;20110;-52
2022/03/28 08:17:20;;;;;;;6.25;3.72;;;;;;;20.60;18.11;99622.44;4971709;28;20038;-56
2022/03/28 08:20:09;;;;;;;12.82;3.83;;;;;;;21.27;17.89;99637.25;4971599;28;20074;-55
2022/03/28 08:22:54;;;;;;;5.28;2.97;;;;;;;22.58;17.62;99622.31;4971968;28;20042;-56
2022/03/28 08:25:39;;;;;;;9.73;4.32;;;;;;;21.33;17.69;99629.66;4943793;28;20039;-56
2022/03/28 08:28:24;;;;;;;6.68;3.40;;;;;;;21.22;18.28;99620.91;4972049;28;20085;-55
2022/03/28 08:31:09;;;;;;;7.65;4.38;;;;;;;20.94;17.84;99615.66;4971839;28;20042;-55
2022/03/28 08:33:53;;;;;;;6.57;3.20;;;;;;;21.72;17.73;99610.59;4969914;28;20486;-54
2022/03/28 08:36:38;;;;;;;6.20;3.78;;;;;;;21.92;18.12;99609.56;4991098;28;20585;-55
2022/03/28 08:39:23;;;;;;;9.32;4.03;;;;;;;21.23;16.98;99606.59;4990838;28;20066;-53
2022/03/28 08:42:09;;;;;;;8.80;4.22;;;;;;;21.28;16.85;99604.28;4960006;28;20070;-53
2022/03/28 08:44:54;;;;;;;7.65;3.80;;;;;;;22.45;16.66;99596.91;4990911;28;20466;-53
2022/03/28 08:47:42;;;;;;;5.10;3.05;;;;;;;21.59;16.27;99583.53;4990819;28;20130;-54
2022/03/28 08:50:27;;;;;;;7.78;3.63;;;;;;;20.49;16.11;99593.38;4962565;28;20482;-56
2022/03/28 08:53:13;;;;;;;5.82;2.83;;;;;;;20.23;16.77;99584.31;4962479;28;20046;-55
2022/03/28 08:55:58;;;;;;;5.95;3.05;;;;;;;20.57;17.45;99585.50;4994069;28;20435;-53
2022/03/28 08:58:43;;;;;;;6.97;2.80;;;;;;;20.95;15.92;99580.06;4976877;28;20054;-51
2022/03/28 09:01:29;;;;;;;5.30;2.90;;;;;;;22.20;15.75;99578.16;4994289;28;20073;-56
2022/03/28 09:04:15;;;;;;;8.00;3.22;;;;;;;22.56;15.73;99571.75;4994353;28;20557;-54
2022/03/28 09:07:00;;;;;;;8.48;3.17;;;;;;;22.84;15.07;99570.63;4979563;28;20046;-53
2022/03/28 09:09:45;;;;;;;8.20;3.35;;;;;;;23.65;15.41;99561.06;4979543;28;20137;-55
2022/03/28 09:12:29;;;;;;;3.33;1.98;;;;;;;25.78;14.60;99561.78;4979416;28;20474;-55
2022/03/28 09:15:16;;;;;;;5.05;2.50;;;;;;;25.20;14.90;99564.03;4994236;28;20382;-55
2022/03/28 09:18:01;;;;;;;5.00;2.25;;;;;;;25.80;14.35;99562.44;4994095;28;20387;-55
2022/03/28 09:20:52;;;;;;;5.00;2.22;;;;;;;26.42;13.91;99554.09;4978523;28;20121;-57
2022/03/28 09:23:42;;;;;;;6.47;2.80;;;;;;;27.02;13.04;99553.00;4994160;28;20141;-56
2022/03/28 09:26:27;;;;;;;5.10;2.90;;;;;;;23.24;15.15;99558.25;4993776;28;20077;-54
2022/03/28 09:29:12;;;;;;;8.70;2.83;;;;;;;24.58;15.28;99547.91;4965647;28;20500;-53
2022/03/28 09:31:56;;;;;;;4.60;2.45;;;;;;;26.74;14.06;99543.03;4979509;28;20078;-55
2022/03/28 09:34:42;;;;;;;5.95;2.97;;;;;;;26.28;14.44;99543.19;4976918;28;20061;-55
2022/03/28 09:37:28;;;;;;;4.78;2.47;;;;;;;27.40;14.35;99538.41;4938751;28;20081;-53
2022/03/28 09:40:44;;;;;;;5.28;2.90;;;;;;;28.13;13.54;99526.34;4978778;28;20046;-55
2022/03/28 09:43:34;;;;;;;6.38;3.28;;;;;;;27.82;13.56;99519.59;4976246;28;20058;-54
2022/03/28 09:46:27;;;;;;;7.93;3.22;;;;;;;28.31;14.31;99527.63;4993373;28;20438;-57
2022/03/28 09:49:24;;;;;;;7.28;3.20;;;;;;;27.14;13.98;99521.88;4978861;28;20042;-54
2022/03/28 09:52:14;;;;;;;4.85;3.08;;;;;;;26.94;14.87;99521.72;4993121;28;20510;-50
2022/03/28 09:55:05;;;;;;;6.38;3.22;;;;;;;27.28;14.23;99516.59;4978994;28;20134;-54
2022/03/28 09:57:49;;;;;;;4.65;2.97;;;;;;;26.26;15.14;99504.94;4979008;28;20070;-52
2022/03/28 10:00:34;;;;;;;5.35;3.13;;;;;;;25.12;16.49;99498.97;4993215;28;20405;-52
2022/03/28 10:03:20;;;;;;;7.43;3.97;;;;;;;25.88;15.97;99499.78;4993182;28;20103;-51
2022/03/28 10:06:06;;;;;;;5.93;3.40;;;;;;;25.99;15.50;99493.09;4978111;28;20117;-55
2022/03/28 10:08:51;;;;;;;7.90;3.67;;;;;;;25.64;17.30;99488.34;4978975;28;20061;-55
2022/03/28 10:11:36;;;;;;;5.75;3.92;;;;;;;27.55;14.87;99487.97;4993079;28;20533;-55
2022/03/28 10:14:21;;;;;;;6.90;3.15;;;;;;;28.47;15.27;99477.94;4993208;28;20057;-55
2022/03/28 10:17:09;;;;;;;6.03;3.83;;;;;;;27.13;16.11;99487.97;4978419;28;20054;-55
2022/03/28 10:19:54;;;;;;;6.55;4.03;;;;;;;28.45;15.29;99479.19;4977998;28;20057;-55
2022/03/28 10:22:45;;;;;;;5.30;3.35;;;;;;;29.72;14.10;99471.13;4978236;28;20046;-54
2022/03/28 10:25:31;;;;;;;6.88;3.40;;;;;;;29.22;14.54;99467.09;4978170;28;20665;-52
2022/03/28 10:28:20;;;;;;;7.45;4.22;;;;;;;29.14;14.88;99471.72;4965115;28;20065;-55
2022/03/28 10:31:16;;;;;;;6.13;3.72;;;;;;;28.55;16.09;99460.75;4993040;28;20114;-56
2022/03/28 10:34:02;;;;;;;7.40;3.92;;;;;;;29.83;13.84;99450.72;4991598;28;20049;-56
2022/03/28 10:36:47;;;;;;;6.20;3.13;;;;;;;30.94;14.10;99436.00;4978355;28;20042;-56
2022/03/28 10:39:35;;;;;;;5.45;3.55;;;;;;;30.72;14.01;99447.19;4964245;28;20124;-56
2022/03/28 10:42:24;;;;;;;7.93;4.28;;;;;;;28.76;15.10;99442.69;4991864;28;20057;-58
2022/03/28 10:45:09;;;;;;;4.55;3.65;;;;;;;29.27;15.39;99435.78;4978332;28;20042;-55
2022/03/28 10:47:56;;;;;;;5.47;3.08;;;;;;;30.65;15.00;99430.19;4978225;28;20051;-55
2022/03/28 10:50:50;;;;;;;4.13;3.10;;;;;;;31.35;14.61;99422.81;4992276;28;20088;-55
2022/03/28 10:53:41;;;;;;;4.65;2.90;;;;;;;32.14;13.91;99423.06;4992325;28;20045;-57
2022/03/28 10:56:35;;;;;;;4.38;2.58;;;;;;;32.44;13.03;99422.16;4977124;28;20478;-55
2022/03/28 10:59:21;;;;;;;4.80;2.75;;;;;;;30.06;15.68;99420.47;4992126;28;20085;-55
2022/03/28 11:02:27;;;;;;;4.05;2.20;;;;;;;31.71;13.89;99422.22;4992014;28;20567;-55
2022/03/28 11:05:14;;;;;;;4.13;2.75;;;;;;;32.70;13.44;99408.41;4992147;28;20050;-56
2022/03/28 11:08:25;;;;;;;3.25;2.40;;;;;;;32.82;13.83;99405.69;4977494;28;20046;-55
2022/03/28 11:11:16;;;;;;;5.13;2.58;;;;;;;31.91;13.28;99404.84;4977663;28;20413;-56
2022/03/28 11:14:05;;;;;;;4.82;2.72;;;;;;;31.22;14.51;99401.38;4992194;28;20054;-54
2022/03/28 11:16:51;;;;;;;4.75;2.88;;;;;;;28.58;16.44;99395.66;4974385;28;20453;-54
2022/03/28 11:19:57;;;;;;;5.28;2.60;;;;;;;30.78;15.48;99383.31;4990735;28;20108;-55
2022/03/28 11:22:57;;;;;;;5.65;3.05;;;;;;;30.22;15.38;99386.72;4963884;28;20050;-56
2022/03/28 11:25:51;;;;;;;4.97;2.30;;;;;;;32.84;14.04;99370.19;4974489;28;20109;-56
2022/03/28 11:28:38;;;;;;;4.70;2.28;;;;;;;31.96;14.74;99364.38;4976874;28;20050;-56
2022/03/28 11:31:22;;;;;;;4.93;2.88;;;;;;;32.73;13.26;99353.69;4977079;28;20046;-54
2022/03/28 11:34:09;;;;;;;3.70;2.78;;;;;;;31.41;15.18;99349.94;4991736;28;20069;-54
2022/03/28 11:36:57;;;;;;;3.80;2.13;;;;;;;33.24;13.71;99347.69;4977089;28;20042;-56
2022/03/28 11:40:05;;;;;;;4.50;2.35;;;;;;;33.18;13.42;99340.53;4977007;28;20092;-52
2022/03/28 11:42:50;;;;;;;5.25;2.58;;;;;;;33.01;14.08;99337.72;4977442;28;20076;-56
2022/03/28 11:45:35;;;;;;;4.63;2.72;;;;;;;32.33;14.52;99333.56;4977036;28;20424;-54
2022/03/28 11:48:19;;;;;;;3.70;2.50;;;;;;;30.79;15.85;99330.06;4991487;28;20054;-56
2022/03/28 11:51:15;;;;;;;5.00;2.65;;;;;;;31.42;15.40;99319.16;4991897;28;20074;-54
2022/03/28 11:54:04;;;;;;;4.20;2.38;;;;;;;31.88;15.01;99319.47;4991664;28;20379;-57
2022/03/28 11:59:53;;;;;;;5.53;3.40;;;;;;;30.34;16.02;99305.78;4991635;28;20669;-55
2022/03/28 12:02:55;;;;;;;5.47;3.92;;;;;;;31.22;15.64;99293.97;4991761;28;20089;-55
2022/03/28 12:05:47;;;;;;;3.88;2.60;;;;;;;30.94;15.13;99276.47;4991410;28;20046;-53
2022/03/28 12:08:32;;;;;;;5.72;3.63;;;;;;;32.03;14.92;99264.06;4991570;28;20050;-55
2022/03/28 12:11:16;;;;;;;5.57;2.97;;;;;;;31.78;15.54;99262.38;4991360;28;20064;-56
2022/03/28 12:14:01;;;;;;;4.50;2.65;;;;;;;32.88;14.45;99247.44;4991551;28;20054;-56
2022/03/28 12:16:51;;;;;;;6.18;2.90;;;;;;;31.83;15.50;99249.78;4976670;28;20042;-54
2022/03/28 12:19:36;;;;;;;5.95;2.78;;;;;;;32.96;14.59;99243.50;4990056;28;20046;-57
2022/03/28 12:22:23;;;;;;;4.40;2.33;;;;;;;33.53;14.13;99230.97;4991118;28;20505;-54
2022/03/28 12:25:09;;;;;;;6.32;2.97;;;;;;;32.01;15.02;99229.09;4976998;28;20109;-58
2022/03/28 12:27:55;;;;;;;3.85;2.28;;;;;;;32.26;15.36;99221.75;4991695;28;20453;-55
2022/03/28 12:30:55;;;;;;;5.97;2.75;;;;;;;33.71;14.32;99220.13;4980279;28;20047;-52
2022/03/28 12:33:44;;;;;;;3.58;2.33;;;;;;;33.22;14.77;99211.44;4994948;28;20136;-52
2022/03/28 12:36:30;;;;;;;4.32;2.92;;;;;;;32.49;15.79;99198.38;4980254;28;20050;-55
2022/03/28 12:39:18;;;;;;;4.35;2.92;;;;;;;33.25;15.11;99193.84;4994987;28;20104;-58
2022/03/28 12:42:04;;;;;;;4.28;2.50;;;;;;;32.99;15.50;99183.34;4966564;28;20042;-55
2022/03/28 12:44:53;;;;;;;4.20;2.15;;;;;;;34.14;14.94;99180.53;4980076;28;20092;-52
2022/03/28 12:47:38;;;;;;;4.57;2.15;;;;;;;33.94;14.81;99169.38;4966490;28;20046;-54
2022/03/28 12:50:26;;;;;;;3.47;1.92;;;;;;;33.81;14.98;99163.25;4993700;28;20047;-55
2022/03/28 12:53:16;;;;;;;4.40;2.95;;;;;;;33.81;14.48;99163.25;4979890;28;20097;-53
2022/03/28 12:56:14;;;;;;;5.45;2.80;;;;;;;33.66;14.97;99161.97;4994569;28;20582;-56
2022/03/28 12:59:02;;;;;;;4.28;2.83;;;;;;;33.51;14.83;99167.13;4994408;28;20050;-54
2022/03/28 13:01:48;;;;;;;7.43;3.28;;;;;;;33.46;14.77;99153.50;4993883;28;20058;-56
2022/03/28 13:04:47;;;;;;;8.60;2.45;;;;;;;33.98;14.60;99136.03;4978878;28;20050;-56
2022/03/28 13:07:33;;;;;;;3.75;2.20;;;;;;;31.57;16.59;99140.91;4965470;28;20070;-55